createdAt,value
2022-08-21T00:00:26.326Z,22.51
2022-08-21T00:10:29.652Z,23.04
2022-08-21T00:20:35.329Z,22.85
2022-08-21T00:30:39.014Z,22.85
2022-08-21T00:40:47.440Z,22.81
2022-08-21T00:50:55.274Z,23.02
2022-08-21T01:01:06.783Z,22.98
2022-08-21T01:11:11.733Z,22.94
2022-08-21T01:21:20.023Z,23.03
2022-08-21T01:31:26.213Z,22.96
2022-08-21T01:41:31.049Z,22.75
2022-08-21T01:51:34.445Z,22.54
2022-08-21T02:01:40.407Z,22.48
2022-08-21T02:11:44.122Z,22.41
2022-08-21T02:21:48.841Z,22.35
2022-08-21T02:31:52.145Z,22.35
2022-08-21T02:41:56.707Z,22.24
2022-08-21T02:52:00.229Z,22.09
2022-08-21T03:02:05.058Z,22.13
2022-08-21T03:12:09.094Z,21.85
2022-08-21T03:22:13.676Z,21.82
2022-08-21T03:32:16.841Z,21.78
2022-08-21T03:42:21.574Z,21.78
2022-08-21T03:52:24.968Z,21.82
2022-08-21T04:02:29.639Z,21.89
2022-08-21T04:12:33.009Z,21.81
2022-08-21T04:22:37.592Z,21.84
2022-08-21T04:32:41.175Z,21.94
2022-08-21T04:42:50.299Z,21.87
2022-08-21T04:52:53.629Z,21.97
2022-08-21T05:03:00.417Z,22.09
2022-08-21T05:13:06.447Z,22.42
2022-08-21T05:23:12.398Z,22.20
2022-08-21T05:33:15.604Z,22.68
2022-08-21T05:43:20.180Z,22.90
2022-08-21T05:53:24.898Z,22.97
2022-08-21T06:03:32.267Z,23.00
2022-08-21T06:13:35.780Z,22.96
2022-08-21T06:23:40.621Z,22.98
2022-08-21T06:33:43.821Z,23.20
2022-08-21T06:43:48.329Z,23.44
2022-08-21T06:53:51.798Z,23.56
2022-08-21T07:03:56.436Z,23.17
2022-08-21T07:13:59.636Z,23.72
2022-08-21T07:24:05.202Z,24.45
2022-08-21T07:34:09.320Z,24.58
2022-08-21T07:44:14.613Z,24.82
2022-08-21T07:54:17.917Z,24.19
2022-08-21T08:04:31.786Z,24.87
2022-08-21T08:14:35.153Z,24.84
2022-08-21T08:24:41.881Z,25.64
2022-08-21T08:34:45.317Z,24.18
2022-08-21T08:44:50.496Z,25.97
2022-08-21T08:55:00.462Z,26.65
2022-08-21T09:05:05.837Z,26.65
2022-08-21T09:15:24.754Z,26.47
2022-08-21T09:25:32.171Z,26.37
2022-08-21T09:35:38.353Z,26.40
2022-08-21T09:45:44.538Z,26.46
2022-08-21T09:56:12.939Z,25.83
2022-08-21T10:06:27.581Z,25.09
2022-08-21T10:16:39.628Z,24.33
2022-08-21T10:26:52.081Z,24.96
2022-08-21T10:37:08.201Z,25.48
2022-08-21T10:47:18.351Z,25.90
2022-08-21T10:57:32.329Z,27.03
2022-08-21T11:07:40.351Z,27.72
2022-08-21T11:17:56.547Z,27.64
2022-08-21T11:28:04.446Z,27.62
2022-08-21T11:38:18.032Z,27.92
2022-08-21T11:48:35.178Z,28.09
2022-08-21T11:58:40.869Z,26.32
2022-08-21T12:08:46.724Z,25.78
2022-08-21T12:18:49.950Z,26.12
2022-08-21T12:29:10.273Z,26.02
2022-08-21T12:39:15.621Z,25.69
2022-08-21T12:49:26.778Z,25.82
2022-08-21T12:59:31.444Z,26.62
2022-08-21T13:09:36.033Z,26.23
2022-08-21T13:19:39.677Z,26.49
2022-08-21T13:29:53.613Z,27.16
2022-08-21T13:40:00.567Z,27.50
2022-08-21T13:50:06.508Z,27.59
2022-08-21T14:00:17.410Z,27.40
2022-08-21T14:10:24.592Z,27.52
2022-08-21T14:20:32.677Z,27.49
2022-08-21T14:30:39.327Z,27.32
2022-08-21T14:40:44.663Z,27.25
2022-08-21T14:50:51.912Z,27.25
2022-08-21T15:00:57.354Z,27.11
2022-08-21T15:11:20.497Z,27.26
2022-08-21T15:21:25.835Z,27.18
2022-08-21T15:31:33.111Z,27.12
2022-08-21T15:41:36.311Z,26.86
2022-08-21T15:51:43.525Z,26.53
2022-08-21T16:01:47.522Z,25.97
2022-08-21T16:11:52.328Z,25.29
2022-08-21T16:21:55.626Z,25.00
2022-08-21T16:32:02.901Z,24.87
2022-08-21T16:42:06.898Z,24.58
2022-08-21T16:52:11.386Z,24.27
2022-08-21T17:02:21.070Z,24.25
2022-08-21T17:12:25.904Z,24.29
2022-08-21T17:22:29.069Z,24.22
2022-08-21T17:32:34.127Z,24.19
2022-08-21T17:42:38.034Z,24.16
2022-08-21T17:52:44.430Z,23.90
2022-08-21T18:03:00.421Z,23.79
2022-08-21T18:13:10.032Z,23.76
2022-08-21T18:23:13.188Z,23.77
2022-08-21T18:33:19.295Z,23.77
2022-08-21T18:43:42.846Z,23.63
2022-08-21T18:53:48.544Z,23.70
2022-08-21T19:03:57.151Z,23.57
2022-08-21T19:14:03.313Z,23.52
2022-08-21T19:24:17.667Z,23.31
2022-08-21T19:34:27.237Z,23.36
2022-08-21T19:44:31.029Z,23.52
2022-08-21T19:54:35.770Z,23.65
2022-08-21T20:04:39.213Z,23.66
2022-08-21T20:14:58.385Z,23.47
2022-08-21T20:25:01.536Z,23.47
2022-08-21T20:35:12.535Z,23.54
2022-08-21T20:45:20.598Z,23.56
2022-08-21T20:55:29.037Z,23.65
2022-08-21T21:05:34.792Z,23.59
2022-08-21T21:15:40.479Z,23.63
2022-08-21T21:25:53.918Z,23.61
2022-08-21T21:36:06.184Z,23.63
2022-08-21T21:46:19.335Z,23.60
2022-08-21T21:56:29.045Z,23.67
2022-08-21T22:06:38.991Z,23.68
2022-08-21T22:16:46.544Z,23.59
2022-08-21T22:26:51.092Z,23.57
2022-08-21T22:37:00.626Z,23.30
2022-08-21T22:47:08.782Z,23.26
2022-08-21T22:57:23.657Z,23.02
2022-08-21T23:07:43.379Z,23.29
2022-08-21T23:17:53.871Z,23.41
2022-08-21T23:28:05.200Z,23.02
2022-08-21T23:38:17.266Z,21.64
2022-08-21T23:48:29.623Z,21.80
2022-08-21T23:58:41.327Z,22.56
